createdAt,value
2022-12-03T00:03:42.141Z,31.53
2022-12-03T00:13:43.677Z,28.97
2022-12-03T00:23:45.105Z,25.47
2022-12-03T00:33:46.562Z,24.87
2022-12-03T00:43:48.029Z,24.77
2022-12-03T00:53:49.576Z,22.10
2022-12-03T01:03:51.052Z,22.67
2022-12-03T01:13:53.696Z,23.80
2022-12-03T01:23:55.429Z,25.37
2022-12-03T01:33:56.876Z,26.73
2022-12-03T01:43:58.960Z,25.57
2022-12-03T01:54:01.859Z,24.83
2022-12-03T02:04:03.487Z,23.63
2022-12-03T02:14:11.811Z,25.07
2022-12-03T02:24:34.982Z,23.20
2022-12-03T02:34:44.767Z,23.60
2022-12-03T02:44:46.296Z,22.73
2022-12-03T02:54:49.395Z,24.33
2022-12-03T03:04:51.268Z,24.10
2022-12-03T03:14:53.325Z,23.77
2022-12-03T03:24:55.167Z,24.50
2022-12-03T03:34:57.228Z,24.73
2022-12-03T03:44:59.052Z,25.27
2022-12-03T03:55:00.611Z,22.60
2022-12-03T04:05:02.302Z,24.30
2022-12-03T04:15:05.322Z,25.47
2022-12-03T04:25:27.387Z,25.67
2022-12-03T04:35:43.940Z,24.43
2022-12-03T04:45:45.551Z,25.80
2022-12-03T04:55:47.073Z,24.87
2022-12-03T05:05:48.756Z,24.47
2022-12-03T05:15:50.204Z,24.93
2022-12-03T05:25:51.675Z,26.57
2022-12-03T05:35:53.113Z,28.00
2022-12-03T05:45:54.629Z,27.23
2022-12-03T05:55:56.162Z,27.53
2022-12-03T06:05:57.612Z,24.80
2022-12-03T06:16:00.948Z,24.20
2022-12-03T06:26:02.878Z,26.23
2022-12-03T06:36:04.929Z,22.50
2022-12-03T06:46:06.427Z,20.90
2022-12-03T06:56:08.033Z,21.23
2022-12-03T07:06:09.560Z,20.87
2022-12-03T07:16:11.060Z,20.87
2022-12-03T07:26:12.561Z,22.73
2022-12-03T07:36:14.013Z,22.20
2022-12-03T07:46:15.655Z,20.47
2022-12-03T07:56:17.137Z,22.23
2022-12-03T08:06:18.589Z,20.07
2022-12-03T08:16:22.041Z,19.27
2022-12-03T08:26:28.021Z,19.50
2022-12-03T08:36:31.271Z,20.47
2022-12-03T08:46:32.711Z,18.23
2022-12-03T08:56:36.859Z,17.53
2022-12-03T09:06:38.338Z,18.60
2022-12-03T09:16:40.855Z,18.07
2022-12-03T09:26:42.393Z,17.97
2022-12-03T09:36:43.907Z,19.03
2022-12-03T09:46:46.286Z,20.63
2022-12-03T09:56:47.743Z,19.13
2022-12-03T10:06:49.299Z,19.67
2022-12-03T10:16:50.962Z,19.17
2022-12-03T10:26:55.486Z,19.00
2022-12-03T10:37:15.359Z,16.83
2022-12-03T10:47:16.913Z,18.13
2022-12-03T10:57:18.503Z,19.20
2022-12-03T11:07:22.022Z,17.00
2022-12-03T11:17:44.947Z,16.67
2022-12-03T11:28:12.324Z,19.30
2022-12-03T11:38:38.488Z,21.30
2022-12-03T11:48:45.521Z,22.90
2022-12-03T11:58:47.472Z,21.17
2022-12-03T12:08:51.953Z,21.63
2022-12-03T12:18:55.378Z,21.53
2022-12-03T12:28:57.275Z,23.87
2022-12-03T12:38:59.706Z,23.67
2022-12-03T12:49:01.255Z,23.30
2022-12-03T12:59:12.496Z,23.27
2022-12-03T13:09:15.228Z,22.47
2022-12-03T13:19:25.176Z,21.33
2022-12-03T13:29:27.809Z,20.70
2022-12-03T13:39:37.819Z,21.43
2022-12-03T13:49:39.456Z,21.47
2022-12-03T13:59:40.912Z,19.23
2022-12-03T14:09:42.363Z,20.20
2022-12-03T14:20:01.932Z,21.17
2022-12-03T14:30:04.945Z,21.20
2022-12-03T14:40:08.978Z,18.53
2022-12-03T14:50:14.207Z,18.10
2022-12-03T15:00:16.549Z,17.03
2022-12-03T15:10:18.012Z,17.63
2022-12-03T15:20:19.556Z,16.93
2022-12-03T15:30:21.023Z,19.73
2022-12-03T15:40:22.515Z,17.40
2022-12-03T15:50:24.192Z,17.23
2022-12-03T16:00:25.685Z,15.37
2022-12-03T16:10:27.142Z,15.17
2022-12-03T16:20:28.720Z,14.83
2022-12-03T16:30:30.232Z,15.67
2022-12-03T16:40:31.730Z,14.97
2022-12-03T16:50:33.329Z,13.03
2022-12-03T17:00:35.060Z,13.50
2022-12-03T17:10:36.665Z,14.80
2022-12-03T17:20:38.511Z,15.17
2022-12-03T17:30:40.044Z,15.20
2022-12-03T17:40:41.538Z,17.07
2022-12-03T17:50:43.112Z,16.13
2022-12-03T18:00:44.727Z,17.30
2022-12-03T18:10:46.259Z,16.93
2022-12-03T18:20:48.000Z,17.20
2022-12-03T18:30:52.751Z,17.60
2022-12-03T18:40:56.620Z,18.40
2022-12-03T18:50:58.082Z,17.63
2022-12-03T19:00:59.617Z,19.97
2022-12-03T19:11:01.147Z,18.83
2022-12-03T19:21:08.068Z,17.57
2022-12-03T19:31:13.371Z,18.17
2022-12-03T19:41:15.271Z,18.87
2022-12-03T19:51:33.687Z,17.57
2022-12-03T20:01:36.660Z,18.07
2022-12-03T20:11:39.289Z,18.40
2022-12-03T20:21:41.803Z,18.47
2022-12-03T20:31:43.632Z,17.53
2022-12-03T20:41:45.193Z,17.13
2022-12-03T20:51:49.930Z,18.07
2022-12-03T21:01:51.487Z,16.43
2022-12-03T21:11:53.017Z,16.60
2022-12-03T21:21:54.515Z,15.93
2022-12-03T21:31:55.948Z,15.60
2022-12-03T21:42:18.714Z,16.43
2022-12-03T21:52:19.601Z,20.57
2022-12-03T22:02:21.898Z,19.83
2022-12-03T22:12:23.541Z,20.20
2022-12-03T22:22:24.973Z,20.10
2022-12-03T22:32:26.527Z,19.23
2022-12-03T22:42:28.051Z,19.43
2022-12-03T22:52:30.235Z,20.87
2022-12-03T23:02:31.733Z,19.23
2022-12-03T23:12:33.298Z,20.70
2022-12-03T23:22:34.774Z,19.13
2022-12-03T23:32:36.695Z,18.20
2022-12-03T23:42:38.307Z,17.93
2022-12-03T23:52:39.967Z,16.70
